sensor_id;sensor_type;location;lat;lon;timestamp;pressure;altitude;pressure_sealevel;temperature;humidity
66703;BME280;60933;46.398;-63.798;2022-09-12T00:00:32;101370.97;;;19.36;64.26
66703;BME280;60933;46.398;-63.798;2022-09-12T00:02:58;101373.72;;;19.33;64.60
66703;BME280;60933;46.398;-63.798;2022-09-12T00:05:25;101374.97;;;19.26;65.04
66703;BME280;60933;46.398;-63.798;2022-09-12T00:07:53;101371.91;;;19.18;65.14
66703;BME280;60933;46.398;-63.798;2022-09-12T00:10:19;101369.59;;;19.11;65.43
66703;BME280;60933;46.398;-63.798;2022-09-12T00:12:45;101367.44;;;19.02;65.40
66703;BME280;60933;46.398;-63.798;2022-09-12T00:15:11;101366.06;;;18.95;65.69
66703;BME280;60933;46.398;-63.798;2022-09-12T00:17:38;101360.34;;;18.87;65.96
66703;BME280;60933;46.398;-63.798;2022-09-12T00:20:06;101359.88;;;18.78;66.20
66703;BME280;60933;46.398;-63.798;2022-09-12T00:22:33;101359.47;;;18.69;66.49
66703;BME280;60933;46.398;-63.798;2022-09-12T00:25:00;101349.34;;;18.62;66.66
66703;BME280;60933;46.398;-63.798;2022-09-12T00:27:26;101349.69;;;18.55;67.21
66703;BME280;60933;46.398;-63.798;2022-09-12T00:29:53;101354.31;;;18.49;67.25
66703;BME280;60933;46.398;-63.798;2022-09-12T00:32:19;101349.38;;;18.43;67.40
66703;BME280;60933;46.398;-63.798;2022-09-12T00:34:46;101355.75;;;18.38;67.40
66703;BME280;60933;46.398;-63.798;2022-09-12T00:37:12;101349.13;;;18.30;67.98
66703;BME280;60933;46.398;-63.798;2022-09-12T00:39:38;101337.19;;;18.25;67.61
66703;BME280;60933;46.398;-63.798;2022-09-12T00:42:05;101337.34;;;18.22;67.95
66703;BME280;60933;46.398;-63.798;2022-09-12T00:52:09;101314.25;;;17.93;69.08
66703;BME280;60933;46.398;-63.798;2022-09-12T00:55:02;101317.88;;;17.91;69.72
66703;BME280;60933;46.398;-63.798;2022-09-12T00:57:39;101307.72;;;17.84;69.65
66703;BME280;60933;46.398;-63.798;2022-09-12T01:00:09;101306.22;;;17.79;70.29
66703;BME280;60933;46.398;-63.798;2022-09-12T01:02:44;101301.28;;;17.72;69.80
66703;BME280;60933;46.398;-63.798;2022-09-12T01:05:12;101299.72;;;17.68;69.81
66703;BME280;60933;46.398;-63.798;2022-09-12T01:07:39;101303.44;;;17.63;69.98
66703;BME280;60933;46.398;-63.798;2022-09-12T01:10:07;101297.59;;;17.58;70.11
66703;BME280;60933;46.398;-63.798;2022-09-12T01:12:37;101303.81;;;17.55;70.09
66703;BME280;60933;46.398;-63.798;2022-09-12T01:15:05;101304.03;;;17.50;70.09
66703;BME280;60933;46.398;-63.798;2022-09-12T01:17:56;101299.00;;;17.46;70.35
66703;BME280;60933;46.398;-63.798;2022-09-12T01:36:36;101267.97;;;17.00;71.37
66703;BME280;60933;46.398;-63.798;2022-09-12T01:44:35;101257.66;;;16.76;71.72
66703;BME280;60933;46.398;-63.798;2022-09-12T01:47:20;101256.78;;;16.75;72.10
66703;BME280;60933;46.398;-63.798;2022-09-12T01:52:52;101243.38;;;16.64;72.24
66703;BME280;60933;46.398;-63.798;2022-09-12T01:58:06;101239.41;;;16.55;73.28
66703;BME280;60933;46.398;-63.798;2022-09-12T02:00:52;101243.97;;;16.50;72.73
66703;BME280;60933;46.398;-63.798;2022-09-12T02:03:24;101248.38;;;16.48;73.25
66703;BME280;60933;46.398;-63.798;2022-09-12T02:06:02;101250.34;;;16.43;73.19
66703;BME280;60933;46.398;-63.798;2022-09-12T02:08:36;101254.75;;;16.41;71.65
66703;BME280;60933;46.398;-63.798;2022-09-12T02:11:09;101250.53;;;16.38;71.00
66703;BME280;60933;46.398;-63.798;2022-09-12T02:13:53;101250.72;;;16.34;71.05
66703;BME280;60933;46.398;-63.798;2022-09-12T02:16:42;101253.31;;;16.34;71.29
66703;BME280;60933;46.398;-63.798;2022-09-12T02:19:13;101251.69;;;16.31;71.83
66703;BME280;60933;46.398;-63.798;2022-09-12T02:21:45;101249.41;;;16.23;72.07
66703;BME280;60933;46.398;-63.798;2022-09-12T02:24:15;101246.13;;;16.18;71.73
66703;BME280;60933;46.398;-63.798;2022-09-12T02:26:50;101254.00;;;16.17;72.49
66703;BME280;60933;46.398;-63.798;2022-09-12T02:29:17;101252.38;;;16.14;72.16
66703;BME280;60933;46.398;-63.798;2022-09-12T02:31:50;101256.94;;;16.09;72.81
66703;BME280;60933;46.398;-63.798;2022-09-12T02:39:25;101227.69;;;15.78;72.88
66703;BME280;60933;46.398;-63.798;2022-09-12T02:41:53;101248.31;;;15.85;73.32
66703;BME280;60933;46.398;-63.798;2022-09-12T02:44:23;101253.59;;;15.83;72.85
66703;BME280;60933;46.398;-63.798;2022-09-12T02:46:53;101240.78;;;15.77;73.20
66703;BME280;60933;46.398;-63.798;2022-09-12T02:49:21;101240.06;;;15.73;74.05
66703;BME280;60933;46.398;-63.798;2022-09-12T02:51:47;101228.91;;;15.70;73.29
66703;BME280;60933;46.398;-63.798;2022-09-12T02:54:15;101241.19;;;15.66;73.42
66703;BME280;60933;46.398;-63.798;2022-09-12T02:56:43;101228.34;;;15.61;74.33
66703;BME280;60933;46.398;-63.798;2022-09-12T02:59:17;101233.66;;;15.58;74.90
66703;BME280;60933;46.398;-63.798;2022-09-12T03:07:13;101226.44;;;15.43;75.14
66703;BME280;60933;46.398;-63.798;2022-09-12T03:09:57;101217.16;;;15.35;74.83
66703;BME280;60933;46.398;-63.798;2022-09-12T03:20:37;101209.03;;;15.21;76.61
66703;BME280;60933;46.398;-63.798;2022-09-12T03:23:31;101210.06;;;15.17;77.44
66703;BME280;60933;46.398;-63.798;2022-09-12T03:26:15;101201.56;;;15.12;77.13
66703;BME280;60933;46.398;-63.798;2022-09-12T03:28:46;101200.00;;;15.08;76.15
66703;BME280;60933;46.398;-63.798;2022-09-12T03:31:16;101198.31;;;15.07;76.29
66703;BME280;60933;46.398;-63.798;2022-09-12T03:33:43;101189.09;;;14.98;76.11
66703;BME280;60933;46.398;-63.798;2022-09-12T03:36:15;101187.25;;;15.00;76.05
66703;BME280;60933;46.398;-63.798;2022-09-12T03:38:43;101194.31;;;14.96;75.66
66703;BME280;60933;46.398;-63.798;2022-09-12T03:41:09;101195.28;;;14.94;75.32
66703;BME280;60933;46.398;-63.798;2022-09-12T03:43:35;101190.25;;;14.89;75.68
66703;BME280;60933;46.398;-63.798;2022-09-12T03:46:01;101191.16;;;14.88;75.80
66703;BME280;60933;46.398;-63.798;2022-09-12T03:48:27;101193.81;;;14.86;75.98
66703;BME280;60933;46.398;-63.798;2022-09-12T03:50:53;101182.69;;;14.83;75.36
66703;BME280;60933;46.398;-63.798;2022-09-12T03:53:19;101180.19;;;14.80;75.36
66703;BME280;60933;46.398;-63.798;2022-09-12T03:55:45;101165.69;;;14.74;75.05
66703;BME280;60933;46.398;-63.798;2022-09-12T03:58:11;101171.94;;;14.68;74.88
66703;BME280;60933;46.398;-63.798;2022-09-12T04:00:37;101175.13;;;14.75;76.06
66703;BME280;60933;46.398;-63.798;2022-09-12T04:03:04;101175.19;;;14.74;78.30
66703;BME280;60933;46.398;-63.798;2022-09-12T04:05:30;101165.09;;;14.64;78.08
66703;BME280;60933;46.398;-63.798;2022-09-12T04:07:56;101168.53;;;14.66;77.41
66703;BME280;60933;46.398;-63.798;2022-09-12T04:10:22;101164.31;;;14.62;77.09
66703;BME280;60933;46.398;-63.798;2022-09-12T04:12:48;101161.81;;;14.59;77.38
66703;BME280;60933;46.398;-63.798;2022-09-12T04:15:14;101160.13;;;14.58;76.44
66703;BME280;60933;46.398;-63.798;2022-09-12T04:17:40;101151.66;;;14.53;75.64
66703;BME280;60933;46.398;-63.798;2022-09-12T04:20:06;101155.16;;;14.52;75.74
66703;BME280;60933;46.398;-63.798;2022-09-12T04:22:33;101152.59;;;14.50;75.84
66703;BME280;60933;46.398;-63.798;2022-09-12T04:24:59;101157.06;;;14.47;75.95
66703;BME280;60933;46.398;-63.798;2022-09-12T04:27:25;101145.06;;;14.43;75.56
66703;BME280;60933;46.398;-63.798;2022-09-12T04:29:51;101149.50;;;14.40;74.94
66703;BME280;60933;46.398;-63.798;2022-09-12T04:32:19;101143.50;;;14.38;75.18
66703;BME280;60933;46.398;-63.798;2022-09-12T04:34:46;101139.28;;;14.34;74.43
66703;BME280;60933;46.398;-63.798;2022-09-12T04:37:13;101133.47;;;14.28;74.24
66703;BME280;60933;46.398;-63.798;2022-09-12T04:39:39;101130.88;;;14.28;74.09
66703;BME280;60933;46.398;-63.798;2022-09-12T04:42:05;101140.41;;;14.27;74.23
66703;BME280;60933;46.398;-63.798;2022-09-12T04:44:32;101126.53;;;14.28;75.72
66703;BME280;60933;46.398;-63.798;2022-09-12T04:46:58;101123.13;;;14.26;77.40
66703;BME280;60933;46.398;-63.798;2022-09-12T04:49:24;101111.16;;;14.22;75.70
66703;BME280;60933;46.398;-63.798;2022-09-12T04:51:52;101107.75;;;14.20;77.51
66703;BME280;60933;46.398;-63.798;2022-09-12T04:54:19;101114.66;;;14.21;77.87
66703;BME280;60933;46.398;-63.798;2022-09-12T04:56:47;101109.53;;;14.18;76.13
66703;BME280;60933;46.398;-63.798;2022-09-12T04:59:15;101100.09;;;14.17;77.78
66703;BME280;60933;46.398;-63.798;2022-09-12T05:01:42;101108.81;;;14.14;77.56
66703;BME280;60933;46.398;-63.798;2022-09-12T05:04:12;101107.22;;;14.10;75.60
66703;BME280;60933;46.398;-63.798;2022-09-12T05:06:39;101102.25;;;14.04;74.16
66703;BME280;60933;46.398;-63.798;2022-09-12T05:09:07;101103.97;;;14.03;73.92
66703;BME280;60933;46.398;-63.798;2022-09-12T05:11:36;101101.53;;;13.99;73.24
66703;BME280;60933;46.398;-63.798;2022-09-12T05:14:02;101095.59;;;13.95;73.53
66703;BME280;60933;46.398;-63.798;2022-09-12T05:16:29;101103.50;;;13.92;73.23
66703;BME280;60933;46.398;-63.798;2022-09-12T05:18:56;101097.56;;;13.88;73.17
66703;BME280;60933;46.398;-63.798;2022-09-12T05:21:24;101097.66;;;13.85;72.90
66703;BME280;60933;46.398;-63.798;2022-09-12T05:23:55;101095.13;;;13.84;73.11
66703;BME280;60933;46.398;-63.798;2022-09-12T05:26:23;101086.59;;;13.80;73.92
66703;BME280;60933;46.398;-63.798;2022-09-12T05:28:50;101085.91;;;13.75;74.29
66703;BME280;60933;46.398;-63.798;2022-09-12T05:31:20;101086.78;;;13.74;74.07
66703;BME280;60933;46.398;-63.798;2022-09-12T05:33:48;101083.44;;;13.70;74.41
66703;BME280;60933;46.398;-63.798;2022-09-12T05:36:26;101074.03;;;13.68;74.75
66703;BME280;60933;46.398;-63.798;2022-09-12T05:38:54;101082.72;;;13.65;73.84
66703;BME280;60933;46.398;-63.798;2022-09-12T05:41:22;101081.97;;;13.61;73.14
66703;BME280;60933;46.398;-63.798;2022-09-12T05:43:56;101076.03;;;13.58;73.57
66703;BME280;60933;46.398;-63.798;2022-09-12T05:46:26;101078.63;;;13.58;76.40
66703;BME280;60933;46.398;-63.798;2022-09-12T05:48:53;101077.13;;;13.51;74.67
66703;BME280;60933;46.398;-63.798;2022-09-12T05:51:22;101083.22;;;13.50;73.89
66703;BME280;60933;46.398;-63.798;2022-09-12T05:53:54;101078.16;;;13.47;74.37
66703;BME280;60933;46.398;-63.798;2022-09-12T05:56:25;101072.22;;;13.43;73.88
66703;BME280;60933;46.398;-63.798;2022-09-12T05:59:06;101063.78;;;13.35;73.43
66703;BME280;60933;46.398;-63.798;2022-09-12T06:01:34;101056.81;;;13.37;72.86
66703;BME280;60933;46.398;-63.798;2022-09-12T06:04:02;101049.97;;;13.34;72.46
66703;BME280;60933;46.398;-63.798;2022-09-12T06:06:30;101053.47;;;13.33;73.00
66703;BME280;60933;46.398;-63.798;2022-09-12T06:08:59;101055.16;;;13.34;73.32
66703;BME280;60933;46.398;-63.798;2022-09-12T06:11:27;101061.28;;;13.32;73.71
66703;BME280;60933;46.398;-63.798;2022-09-12T06:13:55;101062.22;;;13.29;72.87
66703;BME280;60933;46.398;-63.798;2022-09-12T06:16:24;101056.25;;;13.27;72.72
66703;BME280;60933;46.398;-63.798;2022-09-12T06:19:14;101059.72;;;13.26;73.40
66703;BME280;60933;46.398;-63.798;2022-09-12T06:21:40;101061.47;;;13.25;75.13
66703;BME280;60933;46.398;-63.798;2022-09-12T06:24:07;101050.34;;;13.22;72.98
66703;BME280;60933;46.398;-63.798;2022-09-12T06:26:33;101044.41;;;13.18;73.78
66703;BME280;60933;46.398;-63.798;2022-09-12T06:28:59;101041.88;;;13.17;73.97
66703;BME280;60933;46.398;-63.798;2022-09-12T06:31:31;101036.69;;;13.17;74.76
66703;BME280;60933;46.398;-63.798;2022-09-12T06:34:03;101040.06;;;13.19;77.34
66703;BME280;60933;46.398;-63.798;2022-09-12T06:36:32;101033.22;;;13.18;77.35
66703;BME280;60933;46.398;-63.798;2022-09-12T06:39:01;101033.38;;;13.11;75.53
66703;BME280;60933;46.398;-63.798;2022-09-12T06:41:29;101024.84;;;13.08;74.87
66703;BME280;60933;46.398;-63.798;2022-09-12T06:43:56;101030.91;;;13.08;75.55
66703;BME280;60933;46.398;-63.798;2022-09-12T06:46:22;101020.69;;;13.04;76.27
66703;BME280;60933;46.398;-63.798;2022-09-12T06:48:48;100992.69;;;12.87;75.67
66703;BME280;60933;46.398;-63.798;2022-09-12T06:51:16;101025.91;;;13.02;75.02
66703;BME280;60933;46.398;-63.798;2022-09-12T06:53:43;101020.81;;;12.99;74.38
66703;BME280;60933;46.398;-63.798;2022-09-12T06:56:12;101019.22;;;12.95;73.51
66703;BME280;60933;46.398;-63.798;2022-09-12T06:58:39;101022.78;;;12.91;73.23
66703;BME280;60933;46.398;-63.798;2022-09-12T07:01:11;101021.03;;;12.91;73.61
66703;BME280;60933;46.398;-63.798;2022-09-12T07:03:38;101018.50;;;12.90;74.12
66703;BME280;60933;46.398;-63.798;2022-09-12T07:06:10;101015.06;;;12.89;74.82
66703;BME280;60933;46.398;-63.798;2022-09-12T07:08:37;101009.91;;;12.88;74.41
66703;BME280;60933;46.398;-63.798;2022-09-12T07:11:30;101007.44;;;12.85;74.62
66703;BME280;60933;46.398;-63.798;2022-09-12T07:13:58;101004.03;;;12.82;73.33
66703;BME280;60933;46.398;-63.798;2022-09-12T07:16:25;101001.44;;;12.82;74.31
66703;BME280;60933;46.398;-63.798;2022-09-12T07:18:53;101002.25;;;12.85;75.78
66703;BME280;60933;46.398;-63.798;2022-09-12T07:21:21;101005.69;;;12.85;75.34
66703;BME280;60933;46.398;-63.798;2022-09-12T07:23:47;101001.44;;;12.82;74.45
66703;BME280;60933;46.398;-63.798;2022-09-12T07:26:15;101004.91;;;12.81;74.26
66703;BME280;60933;46.398;-63.798;2022-09-12T07:28:41;100999.84;;;12.78;74.03
66703;BME280;60933;46.398;-63.798;2022-09-12T07:31:12;101007.63;;;12.78;74.32
66703;BME280;60933;46.398;-63.798;2022-09-12T07:33:39;101011.09;;;12.77;75.57
66703;BME280;60933;46.398;-63.798;2022-09-12T07:36:07;101005.16;;;12.74;73.08
66703;BME280;60933;46.398;-63.798;2022-09-12T07:38:37;101003.47;;;12.73;73.19
66703;BME280;60933;46.398;-63.798;2022-09-12T07:41:23;100996.63;;;12.70;73.40
66703;BME280;60933;46.398;-63.798;2022-09-12T07:43:55;100996.72;;;12.67;72.78
66703;BME280;60933;46.398;-63.798;2022-09-12T07:46:22;101013.13;;;12.68;74.30
66703;BME280;60933;46.398;-63.798;2022-09-12T07:48:56;101002.00;;;12.64;73.55
66703;BME280;60933;46.398;-63.798;2022-09-12T07:51:23;100998.59;;;12.62;72.73
66703;BME280;60933;46.398;-63.798;2022-09-12T07:53:50;100994.38;;;12.59;72.73
66703;BME280;60933;46.398;-63.798;2022-09-12T07:56:17;100990.91;;;12.59;72.91
66703;BME280;60933;46.398;-63.798;2022-09-12T07:58:44;100991.03;;;12.56;72.76
66703;BME280;60933;46.398;-63.798;2022-09-12T08:01:15;100995.28;;;12.57;73.85
66703;BME280;60933;46.398;-63.798;2022-09-12T08:03:43;100997.09;;;12.55;73.37
66703;BME280;60933;46.398;-63.798;2022-09-12T08:06:16;100986.81;;;12.51;73.13
66703;BME280;60933;46.398;-63.798;2022-09-12T08:08:46;100979.16;;;12.48;73.69
66703;BME280;60933;46.398;-63.798;2022-09-12T08:11:15;100989.44;;;12.50;74.02
66703;BME280;60933;46.398;-63.798;2022-09-12T08:13:41;100981.81;;;12.45;73.69
66703;BME280;60933;46.398;-63.798;2022-09-12T08:16:14;100977.56;;;12.43;74.08
66703;BME280;60933;46.398;-63.798;2022-09-12T08:18:42;100976.63;;;12.45;74.40
66703;BME280;60933;46.398;-63.798;2022-09-12T08:21:12;100977.47;;;12.46;75.11
66703;BME280;60933;46.398;-63.798;2022-09-12T08:23:39;100974.13;;;12.42;75.16
66703;BME280;60933;46.398;-63.798;2022-09-12T08:26:06;100978.41;;;12.43;74.93
66703;BME280;60933;46.398;-63.798;2022-09-12T08:28:33;100972.44;;;12.41;74.38
66703;BME280;60933;46.398;-63.798;2022-09-12T08:31:08;100973.28;;;12.42;74.55
66703;BME280;60933;46.398;-63.798;2022-09-12T08:33:35;100976.81;;;12.39;74.25
66703;BME280;60933;46.398;-63.798;2022-09-12T08:36:16;100964.75;;;12.38;75.04
66703;BME280;60933;46.398;-63.798;2022-09-12T08:38:44;100960.41;;;12.39;75.60
66703;BME280;60933;46.398;-63.798;2022-09-12T08:44:04;100970.75;;;12.40;78.37
66703;BME280;60933;46.398;-63.798;2022-09-12T08:49:33;100968.25;;;12.37;78.58
66703;BME280;60933;46.398;-63.798;2022-09-12T08:54:59;100960.66;;;12.31;75.86
66703;BME280;60933;46.398;-63.798;2022-09-12T08:57:26;100966.72;;;12.30;75.81
66703;BME280;60933;46.398;-63.798;2022-09-12T08:59:52;100963.31;;;12.28;75.29
66703;BME280;60933;46.398;-63.798;2022-09-12T09:02:36;100963.41;;;12.25;74.80
66703;BME280;60933;46.398;-63.798;2022-09-12T09:10:41;100944.84;;;12.10;75.82
66703;BME280;60933;46.398;-63.798;2022-09-12T09:18:39;100964.38;;;12.21;75.34
66703;BME280;60933;46.398;-63.798;2022-09-12T09:21:22;100967.91;;;12.18;76.11
66703;BME280;60933;46.398;-63.798;2022-09-12T09:24:00;100964.34;;;12.22;77.01
66703;BME280;60933;46.398;-63.798;2022-09-12T09:29:15;100960.09;;;12.19;75.66
66703;BME280;60933;46.398;-63.798;2022-09-12T09:31:46;100959.25;;;12.19;75.25
66703;BME280;60933;46.398;-63.798;2022-09-12T09:34:18;100957.56;;;12.18;76.16
66703;BME280;60933;46.398;-63.798;2022-09-12T09:39:48;100965.19;;;12.23;77.70
66703;BME280;60933;46.398;-63.798;2022-09-12T09:42:43;100961.84;;;12.19;78.02
66703;BME280;60933;46.398;-63.798;2022-09-12T09:45:17;100955.81;;;12.18;76.19
66703;BME280;60933;46.398;-63.798;2022-09-12T09:48:16;100948.03;;;12.18;76.75
66703;BME280;60933;46.398;-63.798;2022-09-12T09:50:43;100948.84;;;12.21;77.21
66703;BME280;60933;46.398;-63.798;2022-09-12T09:55:55;100945.19;;;12.28;78.08
66703;BME280;60933;46.398;-63.798;2022-09-12T09:58:30;100954.59;;;12.30;78.79
66703;BME280;60933;46.398;-63.798;2022-09-12T10:01:02;100948.53;;;12.33;78.63
66703;BME280;60933;46.398;-63.798;2022-09-12T10:03:38;100945.00;;;12.35;77.78
66703;BME280;60933;46.398;-63.798;2022-09-12T10:06:25;100956.13;;;12.38;78.29
66703;BME280;60933;46.398;-63.798;2022-09-12T10:09:19;100947.34;;;12.43;77.76
66703;BME280;60933;46.398;-63.798;2022-09-12T10:11:46;100950.75;;;12.45;75.94
66703;BME280;60933;46.398;-63.798;2022-09-12T10:14:32;100955.72;;;12.51;76.57
66703;BME280;60933;46.398;-63.798;2022-09-12T10:17:01;100949.59;;;12.56;75.58
66703;BME280;60933;46.398;-63.798;2022-09-12T10:19:38;100951.19;;;12.60;76.61
66703;BME280;60933;46.398;-63.798;2022-09-12T10:22:16;100950.16;;;12.65;76.30
66703;BME280;60933;46.398;-63.798;2022-09-12T10:24:50;100950.00;;;12.70;75.63
66703;BME280;60933;46.398;-63.798;2022-09-12T10:27:21;100952.41;;;12.76;75.53
66703;BME280;60933;46.398;-63.798;2022-09-12T10:30:17;100953.03;;;12.85;77.10
66703;BME280;60933;46.398;-63.798;2022-09-12T10:32:46;100949.34;;;12.92;78.05
66703;BME280;60933;46.398;-63.798;2022-09-12T10:38:05;100952.16;;;13.12;78.29
66703;BME280;60933;46.398;-63.798;2022-09-12T10:40:38;100954.38;;;13.23;78.55
66703;BME280;60933;46.398;-63.798;2022-09-12T10:45:56;100949.66;;;13.36;75.85
66703;BME280;60933;46.398;-63.798;2022-09-12T10:48:30;100955.31;;;13.49;76.33
66703;BME280;60933;46.398;-63.798;2022-09-12T10:51:00;100953.31;;;13.57;75.22
66703;BME280;60933;46.398;-63.798;2022-09-12T10:53:39;100951.88;;;13.74;77.14
66703;BME280;60933;46.398;-63.798;2022-09-12T10:56:12;100957.53;;;13.85;75.56
66703;BME280;60933;46.398;-63.798;2022-09-12T10:59:00;100954.63;;;13.95;74.93
66703;BME280;60933;46.398;-63.798;2022-09-12T11:07:23;100949.69;;;14.36;76.72
66703;BME280;60933;46.398;-63.798;2022-09-12T11:26:58;100940.44;;;15.40;77.12
66703;BME280;60933;46.398;-63.798;2022-09-12T11:29:47;100926.13;;;15.50;76.69
66703;BME280;60933;46.398;-63.798;2022-09-12T11:40:44;100939.09;;;16.12;78.94
66703;BME280;60933;46.398;-63.798;2022-09-12T11:46:04;100943.03;;;16.40;77.56
66703;BME280;60933;46.398;-63.798;2022-09-12T11:50:59;100933.66;;;16.74;80.29
66703;BME280;60933;46.398;-63.798;2022-09-12T11:53:35;100940.63;;;16.92;79.96
66703;BME280;60933;46.398;-63.798;2022-09-12T11:56:09;100925.47;;;17.01;79.74
66703;BME280;60933;46.398;-63.798;2022-09-12T11:58:40;100940.78;;;17.24;79.94
66703;BME280;60933;46.398;-63.798;2022-09-12T12:03:44;100934.19;;;17.52;76.61
66703;BME280;60933;46.398;-63.798;2022-09-12T12:06:23;100931.03;;;17.63;77.21
66703;BME280;60933;46.398;-63.798;2022-09-12T12:08:51;100929.22;;;17.81;78.22
66703;BME280;60933;46.398;-63.798;2022-09-12T12:11:47;100934.50;;;17.97;78.08
66703;BME280;60933;46.398;-63.798;2022-09-12T12:14:17;100925.03;;;18.12;78.63
66703;BME280;60933;46.398;-63.798;2022-09-12T12:16:45;100928.59;;;18.27;77.91
66703;BME280;60933;46.398;-63.798;2022-09-12T12:21:46;100929.31;;;18.61;75.92
66703;BME280;60933;46.398;-63.798;2022-09-12T12:24:16;100930.00;;;18.81;73.97
66703;BME280;60933;46.398;-63.798;2022-09-12T12:26:56;100929.88;;;18.98;76.36
66703;BME280;60933;46.398;-63.798;2022-09-12T12:34:35;100933.38;;;19.44;73.76
66703;BME280;60933;46.398;-63.798;2022-09-12T12:39:55;100931.53;;;19.75;72.60
66703;BME280;60933;46.398;-63.798;2022-09-12T12:47:41;100929.31;;;20.12;68.50
66703;BME280;60933;46.398;-63.798;2022-09-12T12:50:28;100925.38;;;20.19;71.08
66703;BME280;60933;46.398;-63.798;2022-09-12T12:53:04;100931.34;;;20.21;68.90
66703;BME280;60933;46.398;-63.798;2022-09-12T12:55:44;100926.00;;;20.23;69.12
66703;BME280;60933;46.398;-63.798;2022-09-12T12:58:33;100927.69;;;20.24;68.09
66703;BME280;60933;46.398;-63.798;2022-09-12T13:01:14;100928.44;;;20.26;68.85
66703;BME280;60933;46.398;-63.798;2022-09-12T13:03:56;100928.28;;;20.29;68.95
66703;BME280;60933;46.398;-63.798;2022-09-12T13:06:35;100933.00;;;20.37;69.05
66703;BME280;60933;46.398;-63.798;2022-09-12T13:11:35;100927.84;;;20.50;65.74
66703;BME280;60933;46.398;-63.798;2022-09-12T13:14:05;100932.50;;;20.59;65.92
66703;BME280;60933;46.398;-63.798;2022-09-12T13:16:49;100922.13;;;20.70;65.76
66703;BME280;60933;46.398;-63.798;2022-09-12T13:19:30;100925.88;;;20.81;66.30
66703;BME280;60933;46.398;-63.798;2022-09-12T13:22:03;100917.84;;;20.84;65.26
66703;BME280;60933;46.398;-63.798;2022-09-12T13:24:29;100918.06;;;20.94;66.06
66703;BME280;60933;46.398;-63.798;2022-09-12T13:26:56;100907.28;;;20.98;66.53
66703;BME280;60933;46.398;-63.798;2022-09-12T13:29:26;100902.88;;;21.12;66.45
66703;BME280;60933;46.398;-63.798;2022-09-12T13:32:00;100909.19;;;21.22;64.35
66703;BME280;60933;46.398;-63.798;2022-09-12T13:34:28;100904.56;;;21.39;64.23
66703;BME280;60933;46.398;-63.798;2022-09-12T13:40:17;100892.41;;;21.76;62.98
66703;BME280;60933;46.398;-63.798;2022-09-12T13:42:47;100892.41;;;21.89;63.62
66703;BME280;60933;46.398;-63.798;2022-09-12T13:45:19;100909.25;;;22.11;62.93
66703;BME280;60933;46.398;-63.798;2022-09-12T13:47:49;100900.06;;;22.29;62.37
66703;BME280;60933;46.398;-63.798;2022-09-12T13:50:29;100900.88;;;22.43;60.76
66703;BME280;60933;46.398;-63.798;2022-09-12T13:52:59;100899.63;;;22.36;60.32
66703;BME280;60933;46.398;-63.798;2022-09-12T13:55:30;100898.06;;;22.33;61.43
66703;BME280;60933;46.398;-63.798;2022-09-12T14:00:25;100898.38;;;22.28;61.45
66703;BME280;60933;46.398;-63.798;2022-09-12T14:02:52;100893.22;;;22.40;61.70
66703;BME280;60933;46.398;-63.798;2022-09-12T14:05:39;100889.59;;;22.54;61.93
66703;BME280;60933;46.398;-63.798;2022-09-12T14:08:11;100882.34;;;22.69;61.53
66703;BME280;60933;46.398;-63.798;2022-09-12T14:10:43;100885.28;;;22.88;61.13
66703;BME280;60933;46.398;-63.798;2022-09-12T14:13:23;100886.03;;;23.02;60.63
66703;BME280;60933;46.398;-63.798;2022-09-12T14:15:51;100895.63;;;23.03;59.31
66703;BME280;60933;46.398;-63.798;2022-09-12T14:18:22;100891.78;;;22.96;59.60
66703;BME280;60933;46.398;-63.798;2022-09-12T14:20:50;100900.41;;;22.98;59.55
66703;BME280;60933;46.398;-63.798;2022-09-12T14:25:52;100889.63;;;23.01;60.27
66703;BME280;60933;46.398;-63.798;2022-09-12T14:28:21;100891.44;;;23.12;59.85
66703;BME280;60933;46.398;-63.798;2022-09-12T14:31:21;100880.63;;;23.28;58.97
66703;BME280;60933;46.398;-63.798;2022-09-12T14:38:45;100880.03;;;23.58;57.27
66703;BME280;60933;46.398;-63.798;2022-09-12T14:41:31;100873.47;;;23.64;58.37
66703;BME280;60933;46.398;-63.798;2022-09-12T14:44:01;100868.31;;;23.85;58.07
66703;BME280;60933;46.398;-63.798;2022-09-12T14:46:36;100879.66;;;24.08;56.01
66703;BME280;60933;46.398;-63.798;2022-09-12T14:49:32;100864.66;;;24.31;56.01
66703;BME280;60933;46.398;-63.798;2022-09-12T14:52:02;100863.09;;;24.61;55.96
66703;BME280;60933;46.398;-63.798;2022-09-12T14:57:30;100856.56;;;24.98;54.95
66703;BME280;60933;46.398;-63.798;2022-09-12T15:00:14;100852.59;;;25.13;56.06
66703;BME280;60933;46.398;-63.798;2022-09-12T15:02:43;100857.50;;;25.18;54.61
66703;BME280;60933;46.398;-63.798;2022-09-12T15:07:50;100851.53;;;24.95;54.69
66703;BME280;60933;46.398;-63.798;2022-09-12T15:15:31;100847.81;;;24.97;52.61
66703;BME280;60933;46.398;-63.798;2022-09-12T15:17:57;100836.66;;;25.15;52.60
66703;BME280;60933;46.398;-63.798;2022-09-12T15:20:23;100847.50;;;25.43;53.92
66703;BME280;60933;46.398;-63.798;2022-09-12T15:22:51;100853.19;;;25.38;52.74
66703;BME280;60933;46.398;-63.798;2022-09-12T15:25:18;100841.44;;;25.31;51.52
66703;BME280;60933;46.398;-63.798;2022-09-12T15:27:49;100841.22;;;25.75;52.88
66703;BME280;60933;46.398;-63.798;2022-09-12T15:30:16;100840.59;;;26.02;52.23
66703;BME280;60933;46.398;-63.798;2022-09-12T15:32:43;100845.09;;;26.12;51.72
66703;BME280;60933;46.398;-63.798;2022-09-12T15:35:23;100839.81;;;26.41;53.48
66703;BME280;60933;46.398;-63.798;2022-09-12T15:37:50;100839.94;;;26.79;53.44
66703;BME280;60933;46.398;-63.798;2022-09-12T15:40:16;100834.06;;;27.05;53.12